createdAt,value
2022-11-26T00:01:59.377Z,4.10
2022-11-26T00:04:26.155Z,4.10
2022-11-26T00:06:52.910Z,4.10
2022-11-26T00:09:24.881Z,4.10
2022-11-26T00:11:51.622Z,4.00
2022-11-26T00:14:18.391Z,4.00
2022-11-26T00:16:45.230Z,4.00
2022-11-26T00:19:12.192Z,4.00
2022-11-26T00:21:41.033Z,3.90
2022-11-26T00:24:25.450Z,3.90
2022-11-26T00:26:52.365Z,3.90
2022-11-26T00:29:19.165Z,3.80
2022-11-26T00:31:45.949Z,3.80
2022-11-26T00:34:12.841Z,3.80
2022-11-26T00:36:39.626Z,3.70
2022-11-26T00:39:18.327Z,3.70
2022-11-26T00:41:49.916Z,3.70
2022-11-26T00:44:25.107Z,3.60
2022-11-26T00:46:52.369Z,3.60
2022-11-26T00:49:20.869Z,3.60
2022-11-26T00:51:47.961Z,3.60
2022-11-26T00:54:17.613Z,3.50
2022-11-26T00:56:44.577Z,3.50
2022-11-26T00:59:17.592Z,3.50
2022-11-26T01:01:44.347Z,3.40
2022-11-26T01:04:11.353Z,3.40
2022-11-26T01:06:41.749Z,3.40
2022-11-26T01:09:20.024Z,3.30
2022-11-26T01:11:52.295Z,3.30
2022-11-26T01:14:21.641Z,3.30
2022-11-26T01:16:48.975Z,3.30
2022-11-26T01:19:16.551Z,3.40
2022-11-26T01:21:43.705Z,3.40
2022-11-26T01:24:10.468Z,3.40
2022-11-26T01:26:40.144Z,3.40
2022-11-26T01:29:07.135Z,3.50
2022-11-26T01:31:34.451Z,3.40
2022-11-26T01:34:01.366Z,3.50
2022-11-26T01:36:36.763Z,3.50
2022-11-26T01:39:07.717Z,3.50
2022-11-26T01:41:49.373Z,3.50
2022-11-26T01:44:17.734Z,3.50
2022-11-26T01:46:45.087Z,3.50
2022-11-26T01:49:23.820Z,3.50
2022-11-26T01:52:15.274Z,3.50
2022-11-26T01:54:43.847Z,3.60
2022-11-26T01:57:12.755Z,3.60
2022-11-26T01:59:42.593Z,3.70
2022-11-26T02:02:09.964Z,3.90
2022-11-26T02:04:46.781Z,4.10
2022-11-26T02:07:13.710Z,4.20
2022-11-26T02:09:40.919Z,4.40
2022-11-26T02:12:07.705Z,4.40
2022-11-26T02:14:39.465Z,4.40
2022-11-26T02:17:29.650Z,4.40
2022-11-26T02:20:21.242Z,4.50
2022-11-26T02:23:09.478Z,4.60
2022-11-26T02:25:45.148Z,4.60
2022-11-26T02:28:32.112Z,4.50
2022-11-26T02:31:19.129Z,4.50
2022-11-26T02:34:00.581Z,4.40
2022-11-26T02:36:37.120Z,4.40
2022-11-26T02:39:18.979Z,4.50
2022-11-26T02:41:50.458Z,4.50
2022-11-26T02:44:21.828Z,4.60
2022-11-26T02:46:51.027Z,4.60
2022-11-26T02:49:21.364Z,4.60
2022-11-26T02:51:53.556Z,4.60
2022-11-26T02:54:21.861Z,4.60
2022-11-26T02:56:50.393Z,4.70
2022-11-26T02:59:17.502Z,4.70
2022-11-26T03:01:54.337Z,4.70
2022-11-26T03:04:29.279Z,4.80
2022-11-26T03:06:58.201Z,4.70
2022-11-26T03:09:24.954Z,4.80
2022-11-26T03:11:51.823Z,4.80
2022-11-26T03:14:18.707Z,4.80
2022-11-26T03:16:45.506Z,4.70
2022-11-26T03:19:12.289Z,4.70
2022-11-26T03:21:38.999Z,4.70
2022-11-26T03:24:05.939Z,4.70
2022-11-26T03:26:32.663Z,4.70
2022-11-26T03:28:59.410Z,4.70
2022-11-26T03:31:26.207Z,4.70
2022-11-26T03:33:52.932Z,4.70
2022-11-26T03:36:20.039Z,4.70
2022-11-26T03:38:46.853Z,4.80
2022-11-26T03:41:13.668Z,4.70
2022-11-26T03:43:40.421Z,4.80
2022-11-26T03:46:07.206Z,4.80
2022-11-26T03:48:34.087Z,4.80
2022-11-26T03:51:00.793Z,4.80
2022-11-26T03:53:27.742Z,4.80
2022-11-26T03:55:54.471Z,4.80
2022-11-26T03:58:21.365Z,4.80
2022-11-26T04:00:48.147Z,4.80
2022-11-26T04:03:14.971Z,4.80
2022-11-26T04:05:41.750Z,4.80
2022-11-26T04:08:08.541Z,4.80
2022-11-26T04:10:35.373Z,4.80
2022-11-26T04:13:02.111Z,4.80
2022-11-26T04:15:28.846Z,4.80
2022-11-26T04:17:55.569Z,4.80
2022-11-26T04:20:22.351Z,4.80
2022-11-26T04:22:49.113Z,4.80
2022-11-26T04:25:15.875Z,4.80
2022-11-26T04:27:42.583Z,4.80
2022-11-26T04:30:09.885Z,4.90
2022-11-26T04:32:39.827Z,4.90
2022-11-26T04:35:08.055Z,4.90
2022-11-26T04:37:35.013Z,4.90
2022-11-26T04:40:01.989Z,4.90
2022-11-26T04:42:28.702Z,4.90
2022-11-26T04:44:55.415Z,4.80
2022-11-26T04:47:22.170Z,4.80
2022-11-26T04:49:48.945Z,4.80
2022-11-26T04:52:15.701Z,4.80
2022-11-26T04:54:42.558Z,4.80
2022-11-26T04:57:09.294Z,4.80
2022-11-26T04:59:35.996Z,4.80
2022-11-26T05:02:02.777Z,4.80
2022-11-26T05:04:29.862Z,4.80
2022-11-26T05:06:56.582Z,4.80
2022-11-26T05:09:23.297Z,4.80
2022-11-26T05:11:50.029Z,4.80
2022-11-26T05:14:16.794Z,4.80
2022-11-26T05:16:43.873Z,4.80
2022-11-26T05:19:10.659Z,4.80
2022-11-26T05:21:37.445Z,4.80
2022-11-26T05:24:04.435Z,4.80
2022-11-26T05:26:31.213Z,4.80
2022-11-26T05:28:57.910Z,4.80
2022-11-26T05:31:24.715Z,4.80
2022-11-26T05:33:51.471Z,4.90
2022-11-26T05:36:18.243Z,4.90
2022-11-26T05:38:44.953Z,4.80
2022-11-26T05:41:11.761Z,4.80
2022-11-26T05:43:38.506Z,4.80
2022-11-26T05:46:07.573Z,4.90
2022-11-26T05:48:34.544Z,4.90
2022-11-26T05:51:02.224Z,4.90
2022-11-26T05:53:30.404Z,4.90
2022-11-26T05:55:57.207Z,4.90
2022-11-26T05:58:24.002Z,4.90
2022-11-26T06:00:50.784Z,4.90
2022-11-26T06:03:20.251Z,4.90
2022-11-26T06:05:47.390Z,4.90
2022-11-26T06:08:14.203Z,4.80
2022-11-26T06:10:44.617Z,4.80
2022-11-26T06:13:11.388Z,4.80
2022-11-26T06:15:38.114Z,4.70
2022-11-26T06:18:04.928Z,4.60
2022-11-26T06:20:31.694Z,4.60
2022-11-26T06:22:58.401Z,4.50
2022-11-26T06:25:25.199Z,4.50
2022-11-26T06:27:52.216Z,4.50
2022-11-26T06:30:19.469Z,4.40
2022-11-26T06:32:46.298Z,4.40
2022-11-26T06:35:13.142Z,4.30
2022-11-26T06:37:40.253Z,4.20
2022-11-26T06:40:08.225Z,4.10
2022-11-26T06:42:35.137Z,4.10
2022-11-26T06:45:01.906Z,4.00
2022-11-26T06:47:28.661Z,4.00
2022-11-26T06:49:55.378Z,3.90
2022-11-26T06:52:22.133Z,3.90
2022-11-26T06:54:49.731Z,3.90
2022-11-26T06:57:16.507Z,3.90
2022-11-26T06:59:43.229Z,3.80
2022-11-26T07:02:10.493Z,3.80
2022-11-26T07:04:37.574Z,3.80
2022-11-26T07:07:04.700Z,3.70
2022-11-26T07:09:31.512Z,3.70
2022-11-26T07:11:58.830Z,3.60
2022-11-26T07:14:25.671Z,3.60
2022-11-26T07:16:52.579Z,3.60
2022-11-26T07:19:19.260Z,3.60
2022-11-26T07:21:45.977Z,3.60
2022-11-26T07:24:12.926Z,3.70
2022-11-26T07:26:39.697Z,3.70
2022-11-26T07:29:06.498Z,3.70
2022-11-26T07:31:33.413Z,3.70
2022-11-26T07:34:00.186Z,3.70
2022-11-26T07:36:30.506Z,3.60
2022-11-26T07:39:02.094Z,3.70
2022-11-26T07:41:29.921Z,3.70
2022-11-26T07:43:56.971Z,3.70
2022-11-26T07:46:25.548Z,3.80
2022-11-26T07:48:52.675Z,3.80
2022-11-26T07:51:28.375Z,3.80
2022-11-26T07:53:56.498Z,3.90
2022-11-26T07:56:23.213Z,4.00
2022-11-26T07:58:50.019Z,4.10
2022-11-26T08:01:22.282Z,4.20
2022-11-26T08:03:51.081Z,4.30
2022-11-26T08:06:20.245Z,4.40
2022-11-26T08:08:47.741Z,4.50
2022-11-26T08:11:23.173Z,4.60
2022-11-26T08:13:54.356Z,4.60
2022-11-26T08:16:21.214Z,4.60
2022-11-26T08:18:48.048Z,4.60
2022-11-26T08:21:14.822Z,4.70
2022-11-26T08:23:41.587Z,4.70
2022-11-26T08:26:23.881Z,4.70
2022-11-26T08:28:52.508Z,4.70
2022-11-26T08:31:19.609Z,4.80
2022-11-26T08:33:46.879Z,4.90
2022-11-26T08:36:13.701Z,5.00
2022-11-26T08:38:40.609Z,5.00
2022-11-26T08:41:13.244Z,5.10
2022-11-26T08:44:05.252Z,5.10
2022-11-26T08:46:27.745Z,5.20
2022-11-26T08:48:58.134Z,5.20
2022-11-26T08:51:25.714Z,5.30
2022-11-26T08:53:53.143Z,5.40
2022-11-26T08:56:20.258Z,5.60
2022-11-26T08:58:49.146Z,5.70
2022-11-26T09:01:21.638Z,5.70
2022-11-26T09:03:50.527Z,5.80
2022-11-26T09:06:18.451Z,5.80
2022-11-26T09:09:03.792Z,5.60
2022-11-26T09:11:30.765Z,5.60
2022-11-26T09:13:58.274Z,5.60
2022-11-26T09:16:25.542Z,5.60
2022-11-26T09:18:53.218Z,5.70
2022-11-26T09:21:22.858Z,5.80
2022-11-26T09:23:49.751Z,6.00
2022-11-26T09:26:18.886Z,6.30
2022-11-26T09:28:45.611Z,6.70
2022-11-26T09:31:12.637Z,7.10
2022-11-26T09:33:39.505Z,7.60
2022-11-26T09:36:08.605Z,7.70
2022-11-26T09:38:36.121Z,7.90
2022-11-26T09:41:11.968Z,8.10
2022-11-26T09:43:55.147Z,8.30
2022-11-26T09:46:40.916Z,8.60
2022-11-26T09:49:18.307Z,8.00
2022-11-26T09:51:50.376Z,7.70
2022-11-26T09:54:23.727Z,7.60
2022-11-26T09:56:54.606Z,7.40
2022-11-26T09:59:22.768Z,7.30
2022-11-26T10:01:49.546Z,7.00
2022-11-26T10:04:33.213Z,6.90
2022-11-26T10:07:47.001Z,7.10
2022-11-26T10:10:20.915Z,7.00
2022-11-26T10:13:20.796Z,7.60
2022-11-26T10:16:19.868Z,7.90
2022-11-26T10:19:12.814Z,7.50
2022-11-26T10:21:59.281Z,7.60
2022-11-26T10:24:34.776Z,7.50
2022-11-26T10:27:10.109Z,7.50
2022-11-26T10:29:45.313Z,7.30
2022-11-26T10:32:16.518Z,7.20
2022-11-26T10:34:50.605Z,7.80
2022-11-26T10:37:19.165Z,8.40
2022-11-26T10:39:45.988Z,9.00
2022-11-26T10:42:21.776Z,9.70
2022-11-26T10:44:52.933Z,9.90
2022-11-26T10:47:24.235Z,10.10
2022-11-26T10:50:39.487Z,10.40
2022-11-26T10:53:06.358Z,10.60
2022-11-26T10:55:39.531Z,10.10
2022-11-26T10:58:15.186Z,10.30
2022-11-26T11:00:59.523Z,10.40
2022-11-26T11:04:13.070Z,10.40
2022-11-26T11:06:43.841Z,10.90
2022-11-26T11:09:25.688Z,11.60
2022-11-26T11:12:12.633Z,12.10
2022-11-26T11:14:43.069Z,12.10
2022-11-26T11:17:23.336Z,12.60
2022-11-26T11:19:50.117Z,12.40
2022-11-26T11:22:23.565Z,11.60
2022-11-26T11:24:50.587Z,11.50
2022-11-26T11:27:35.813Z,11.80
2022-11-26T11:30:02.901Z,11.30
2022-11-26T11:32:40.265Z,12.10
2022-11-26T11:35:22.576Z,12.20
2022-11-26T11:37:59.441Z,12.40
2022-11-26T11:40:30.393Z,13.10
2022-11-26T11:43:00.304Z,12.70
2022-11-26T11:45:36.679Z,12.20
2022-11-26T11:48:15.368Z,12.70
2022-11-26T11:50:56.892Z,12.70
2022-11-26T11:53:26.365Z,12.70
2022-11-26T11:56:29.926Z,12.30
2022-11-26T11:59:47.562Z,12.00
2022-11-26T12:02:32.143Z,11.90
2022-11-26T12:05:36.211Z,12.10
2022-11-26T12:08:41.164Z,12.00
2022-11-26T12:11:26.092Z,12.40
2022-11-26T12:14:06.026Z,12.90
2022-11-26T12:16:40.465Z,12.60
2022-11-26T12:19:18.921Z,12.30
2022-11-26T12:22:02.113Z,11.90
2022-11-26T12:24:54.849Z,12.20
2022-11-26T12:27:50.288Z,12.40
2022-11-26T12:30:21.113Z,12.30
2022-11-26T12:32:51.764Z,12.30
2022-11-26T12:35:25.338Z,12.90
2022-11-26T12:37:59.215Z,12.50
2022-11-26T12:40:35.646Z,12.70
2022-11-26T12:43:31.289Z,12.60
2022-11-26T12:46:11.061Z,12.40
2022-11-26T12:48:49.021Z,12.30
2022-11-26T12:51:29.639Z,12.10
2022-11-26T12:54:09.910Z,12.70
2022-11-26T12:56:59.958Z,12.80
2022-11-26T12:59:38.668Z,12.30
2022-11-26T13:02:26.124Z,12.10
2022-11-26T13:04:54.091Z,12.20
2022-11-26T13:07:42.718Z,11.80
2022-11-26T13:10:28.150Z,12.40
2022-11-26T13:12:54.916Z,13.10
2022-11-26T13:15:33.295Z,12.40
2022-11-26T13:18:01.067Z,12.60
2022-11-26T13:20:42.857Z,12.20
2022-11-26T13:23:20.986Z,12.30
2022-11-26T13:26:15.700Z,12.70
2022-11-26T13:29:20.257Z,12.70
2022-11-26T13:32:32.881Z,12.10
2022-11-26T13:35:37.317Z,11.80
2022-11-26T13:38:30.955Z,11.50
2022-11-26T13:41:37.906Z,11.30
2022-11-26T13:44:16.670Z,11.70
2022-11-26T13:47:13.439Z,11.90
2022-11-26T13:49:47.814Z,11.60
2022-11-26T13:52:14.545Z,11.40
2022-11-26T13:54:55.803Z,11.60
2022-11-26T13:57:26.785Z,11.40
2022-11-26T13:59:56.137Z,10.50
2022-11-26T14:02:35.356Z,10.50
2022-11-26T14:05:05.331Z,10.40
2022-11-26T14:07:32.387Z,10.30
2022-11-26T14:10:01.216Z,10.60
2022-11-26T14:13:03.596Z,10.80
2022-11-26T14:15:42.091Z,10.70
2022-11-26T14:18:09.932Z,10.50
2022-11-26T14:21:01.648Z,10.50
2022-11-26T14:23:48.662Z,10.30
2022-11-26T14:26:18.392Z,10.10
2022-11-26T14:28:45.360Z,10.00
2022-11-26T14:31:28.281Z,10.00
2022-11-26T14:33:58.521Z,9.80
2022-11-26T14:36:27.696Z,9.80
2022-11-26T14:39:05.811Z,9.70
2022-11-26T14:41:41.971Z,9.60
2022-11-26T14:44:19.190Z,9.40
2022-11-26T14:46:49.074Z,9.30
2022-11-26T14:49:34.662Z,9.20
2022-11-26T14:52:23.319Z,9.20
2022-11-26T14:54:53.568Z,9.10
2022-11-26T14:57:27.286Z,9.00
2022-11-26T15:00:04.579Z,8.90
2022-11-26T15:02:32.111Z,8.80
2022-11-26T15:05:04.634Z,8.70
2022-11-26T15:07:32.075Z,8.60
2022-11-26T15:10:22.206Z,8.40
2022-11-26T15:12:51.625Z,8.40
2022-11-26T15:15:21.216Z,8.20
2022-11-26T15:17:53.395Z,8.20
2022-11-26T15:20:21.088Z,8.00
2022-11-26T15:22:57.316Z,7.90
2022-11-26T15:25:25.991Z,7.70
2022-11-26T15:28:04.203Z,7.50
2022-11-26T15:30:36.910Z,7.40
2022-11-26T15:33:10.868Z,7.20
2022-11-26T15:35:39.879Z,7.10
2022-11-26T15:38:17.868Z,6.80
2022-11-26T15:40:44.616Z,6.60
2022-11-26T15:43:44.637Z,6.60
2022-11-26T15:46:14.213Z,6.50
2022-11-26T15:48:52.116Z,6.40
2022-11-26T15:51:35.775Z,6.20
2022-11-26T15:54:05.578Z,6.10
2022-11-26T15:56:38.032Z,6.10
2022-11-26T15:59:13.450Z,5.90
2022-11-26T16:01:44.733Z,5.90
2022-11-26T16:04:33.086Z,5.80
2022-11-26T16:07:20.148Z,5.70
2022-11-26T16:09:48.134Z,5.60
2022-11-26T16:12:27.385Z,5.50
2022-11-26T16:15:18.696Z,5.40
2022-11-26T16:17:46.981Z,5.30
2022-11-26T16:20:21.488Z,5.20
2022-11-26T16:22:50.948Z,5.20
2022-11-26T16:25:27.052Z,5.10
2022-11-26T16:28:11.990Z,5.00
2022-11-26T16:30:41.237Z,4.90
2022-11-26T16:33:08.145Z,4.70
2022-11-26T16:35:50.688Z,4.70
2022-11-26T16:38:22.175Z,4.70
2022-11-26T16:40:49.661Z,4.60
2022-11-26T16:43:16.403Z,4.50
2022-11-26T16:45:43.626Z,4.50
2022-11-26T16:48:16.121Z,4.40
2022-11-26T16:50:42.869Z,4.30
2022-11-26T16:53:09.897Z,4.30
2022-11-26T16:55:36.927Z,4.20
2022-11-26T16:58:05.480Z,4.20
2022-11-26T17:00:33.390Z,4.10
2022-11-26T17:03:00.307Z,4.10
2022-11-26T17:05:27.160Z,4.00
2022-11-26T17:07:57.484Z,4.00
2022-11-26T17:10:26.481Z,4.00
2022-11-26T17:12:53.238Z,4.00
2022-11-26T17:15:20.065Z,4.00
2022-11-26T17:17:46.813Z,4.00
2022-11-26T17:20:25.574Z,3.90
2022-11-26T17:22:53.014Z,3.80
2022-11-26T17:25:20.331Z,3.60
2022-11-26T17:27:48.028Z,3.60
2022-11-26T17:30:21.093Z,3.70
2022-11-26T17:32:47.924Z,3.70
2022-11-26T17:35:15.107Z,3.60
2022-11-26T17:37:41.848Z,3.60
2022-11-26T17:40:20.559Z,3.60
2022-11-26T17:42:47.910Z,3.50
2022-11-26T17:45:15.560Z,3.50
2022-11-26T17:47:43.419Z,3.50
2022-11-26T17:50:20.840Z,3.50
2022-11-26T17:52:48.727Z,3.40
2022-11-26T17:55:16.434Z,3.40
2022-11-26T17:57:43.482Z,3.30
2022-11-26T18:00:17.339Z,3.30
2022-11-26T18:02:46.219Z,3.30
2022-11-26T18:05:13.471Z,3.20
2022-11-26T18:07:40.544Z,3.10
2022-11-26T18:10:12.735Z,3.00
2022-11-26T18:12:40.262Z,3.10
2022-11-26T18:15:07.642Z,3.00
2022-11-26T18:17:34.525Z,3.00
2022-11-26T18:20:01.494Z,2.90
2022-11-26T18:22:28.520Z,2.80
2022-11-26T18:24:57.206Z,2.80
2022-11-26T18:27:30.545Z,2.80
2022-11-26T18:29:57.336Z,2.80
2022-11-26T18:32:24.129Z,2.70
2022-11-26T18:34:51.238Z,2.60
2022-11-26T18:37:18.494Z,2.60
2022-11-26T18:39:45.402Z,2.60
2022-11-26T18:45:00.316Z,2.60
2022-11-26T18:47:27.103Z,2.60
2022-11-26T18:49:53.910Z,2.50
2022-11-26T18:52:20.632Z,2.50
2022-11-26T18:54:47.479Z,2.40
2022-11-26T18:57:14.229Z,2.40
2022-11-26T18:59:41.083Z,2.30
2022-11-26T19:02:10.272Z,2.20
2022-11-26T19:04:37.102Z,2.20
2022-11-26T19:07:03.889Z,2.10
2022-11-26T19:09:30.631Z,2.10
2022-11-26T19:11:58.315Z,2.00
2022-11-26T19:14:25.129Z,1.90
2022-11-26T19:16:52.073Z,2.00
2022-11-26T19:19:19.059Z,1.90
2022-11-26T19:21:45.834Z,1.80
2022-11-26T19:24:12.933Z,1.80
2022-11-26T19:26:41.263Z,1.70
2022-11-26T19:29:09.300Z,1.60
2022-11-26T19:31:38.901Z,1.60
2022-11-26T19:34:08.964Z,1.50
2022-11-26T19:36:37.307Z,1.50
2022-11-26T19:39:05.303Z,1.50
2022-11-26T19:41:32.682Z,1.40
2022-11-26T19:44:05.316Z,1.40
2022-11-26T19:46:35.246Z,1.40
2022-11-26T19:49:02.014Z,1.40
2022-11-26T19:51:28.858Z,1.30
2022-11-26T19:53:56.483Z,1.30
2022-11-26T19:56:33.899Z,1.30
2022-11-26T19:59:02.127Z,1.30
2022-11-26T20:01:34.401Z,1.20
2022-11-26T20:04:04.272Z,1.20
2022-11-26T20:06:33.280Z,1.10
2022-11-26T20:09:00.294Z,1.10
2022-11-26T20:11:28.750Z,1.10
2022-11-26T20:13:56.813Z,1.00
2022-11-26T20:16:29.384Z,1.10
2022-11-26T20:18:56.989Z,0.90
2022-11-26T20:21:26.144Z,1.10
2022-11-26T20:23:54.282Z,1.10
2022-11-26T20:26:30.845Z,1.20
2022-11-26T20:29:11.885Z,1.20
2022-11-26T20:31:49.901Z,1.10
2022-11-26T20:34:19.155Z,1.10
2022-11-26T20:36:46.193Z,1.10
2022-11-26T20:39:15.449Z,1.00
2022-11-26T20:41:42.733Z,0.90
2022-11-26T20:44:10.486Z,1.00
2022-11-26T20:46:37.595Z,1.10
2022-11-26T20:49:05.853Z,1.10
2022-11-26T20:51:33.243Z,1.10
2022-11-26T20:54:01.478Z,1.00
2022-11-26T20:56:28.929Z,1.00
2022-11-26T20:58:56.022Z,0.80
2022-11-26T21:01:28.365Z,0.80
2022-11-26T21:03:56.214Z,0.90
2022-11-26T21:06:30.434Z,0.90
2022-11-26T21:09:02.719Z,1.00
2022-11-26T21:11:30.379Z,0.90
2022-11-26T21:13:58.832Z,1.00
2022-11-26T21:16:26.047Z,0.90
2022-11-26T21:18:54.576Z,1.00
2022-11-26T21:21:22.274Z,0.90
2022-11-26T21:23:49.082Z,0.90
2022-11-26T21:26:18.999Z,0.80
2022-11-26T21:28:50.041Z,0.80
2022-11-26T21:31:18.413Z,0.80
2022-11-26T21:33:46.476Z,0.90
2022-11-26T21:36:16.677Z,0.90
2022-11-26T21:38:47.129Z,0.90
2022-11-26T21:41:15.506Z,0.90
2022-11-26T21:43:43.927Z,0.90
2022-11-26T21:46:16.018Z,0.90
2022-11-26T21:48:43.151Z,0.90
2022-11-26T21:51:12.438Z,0.90
2022-11-26T21:53:39.696Z,0.80
2022-11-26T21:56:13.893Z,0.80
2022-11-26T21:58:40.947Z,0.70
2022-11-26T22:01:16.434Z,0.60
2022-11-26T22:03:44.889Z,0.60
2022-11-26T22:06:15.625Z,0.60
2022-11-26T22:08:42.805Z,0.60
2022-11-26T22:11:12.370Z,0.60
2022-11-26T22:13:40.251Z,0.60
2022-11-26T22:16:08.380Z,0.60
2022-11-26T22:18:39.733Z,0.50
2022-11-26T22:21:16.017Z,0.50
2022-11-26T22:23:42.943Z,0.50
2022-11-26T22:26:09.800Z,0.40
2022-11-26T22:28:38.619Z,0.30
2022-11-26T22:31:26.865Z,0.20
2022-11-26T22:33:55.817Z,0.10
2022-11-26T22:36:23.362Z,0.10
2022-11-26T22:38:50.284Z,0.20
2022-11-26T22:41:17.083Z,0.20
2022-11-26T22:43:44.407Z,0.20
2022-11-26T22:46:14.338Z,0.30
2022-11-26T22:48:42.144Z,0.30
2022-11-26T22:51:10.015Z,0.30
2022-11-26T22:53:37.318Z,0.30
2022-11-26T22:56:04.924Z,0.30
2022-11-26T22:58:34.078Z,0.30
2022-11-26T23:01:06.922Z,0.10
2022-11-26T23:03:37.148Z,0.10
2022-11-26T23:06:09.297Z,0.10
2022-11-26T23:08:37.162Z,0.00
2022-11-26T23:11:13.449Z,-0.20
2022-11-26T23:13:42.032Z,-0.20
2022-11-26T23:16:09.421Z,-0.20
2022-11-26T23:18:37.306Z,-0.10
2022-11-26T23:21:08.529Z,-0.10
2022-11-26T23:23:37.348Z,0.00
2022-11-26T23:26:05.024Z,0.00
2022-11-26T23:28:33.302Z,0.00
2022-11-26T23:31:04.993Z,0.10
2022-11-26T23:33:32.173Z,0.10
2022-11-26T23:35:59.279Z,0.00
2022-11-26T23:38:26.078Z,0.10
2022-11-26T23:41:03.529Z,0.10
2022-11-26T23:43:31.883Z,0.20
2022-11-26T23:46:29.239Z,0.30
2022-11-26T23:48:56.500Z,0.40
2022-11-26T23:51:29.288Z,0.40
2022-11-26T23:53:56.311Z,0.40
2022-11-26T23:56:33.815Z,0.40
2022-11-26T23:59:03.963Z,0.40
